createdAt,value
2023-02-07T00:00:01.700Z,50.17
2023-02-07T00:00:11.740Z,50.17
2023-02-07T00:00:21.696Z,50.17
2023-02-07T00:00:31.713Z,50.17
2023-02-07T00:00:41.700Z,50.17
2023-02-07T00:00:51.723Z,50.17
2023-02-07T00:01:01.692Z,50.17
2023-02-07T00:01:11.744Z,50.17
2023-02-07T00:01:21.692Z,50.17
2023-02-07T00:01:31.719Z,50.17
2023-02-07T00:01:41.795Z,50.17
2023-02-07T00:01:51.912Z,50.17
2023-02-07T00:02:01.772Z,50.17
2023-02-07T00:02:21.765Z,50.17
2023-02-07T00:02:31.699Z,50.17
2023-02-07T00:02:41.680Z,50.17
2023-02-07T00:02:51.723Z,50.17
2023-02-07T00:03:01.738Z,50.17
2023-02-07T00:03:11.721Z,50.17
2023-02-07T00:03:21.717Z,50.17
2023-02-07T00:03:31.739Z,50.17
2023-02-07T00:03:41.703Z,50.17
2023-02-07T00:03:51.710Z,50.17
2023-02-07T00:04:01.719Z,50.17
2023-02-07T00:04:11.704Z,50.17
2023-02-07T00:04:21.675Z,50.17
2023-02-07T00:04:31.700Z,50.17
2023-02-07T00:04:41.666Z,50.17
2023-02-07T00:04:51.701Z,50.17
2023-02-07T00:05:01.684Z,50.17
2023-02-07T00:05:11.680Z,50.17
2023-02-07T00:05:21.665Z,50.17
2023-02-07T00:05:31.676Z,50.17
2023-02-07T00:05:41.661Z,50.17
2023-02-07T00:05:51.690Z,50.17
2023-02-07T00:06:01.691Z,50.17
2023-02-07T00:06:11.676Z,50.17
2023-02-07T00:06:21.653Z,50.17
2023-02-07T00:06:31.685Z,50.17
2023-02-07T00:06:41.658Z,50.17
2023-02-07T00:06:51.672Z,50.17
2023-02-07T00:07:01.663Z,50.17
2023-02-07T00:07:11.666Z,50.17
2023-02-07T00:07:21.650Z,50.17
2023-02-07T00:07:31.664Z,50.17
2023-02-07T00:07:41.650Z,50.17
2023-02-07T00:07:51.677Z,50.17
2023-02-07T00:08:01.657Z,50.17
2023-02-07T00:08:11.660Z,50.17
2023-02-07T00:08:21.639Z,50.17
2023-02-07T00:08:31.677Z,50.17
2023-02-07T00:08:41.640Z,50.17
2023-02-07T00:08:51.674Z,50.17
2023-02-07T00:09:01.641Z,50.17
2023-02-07T00:09:11.679Z,50.17
2023-02-07T00:09:21.634Z,50.17
2023-02-07T00:09:31.664Z,50.17
2023-02-07T00:09:51.663Z,50.17
2023-02-07T00:10:01.727Z,50.17
2023-02-07T00:10:11.662Z,50.17
2023-02-07T00:10:21.625Z,50.17
2023-02-07T00:10:31.681Z,50.17
2023-02-07T00:10:41.624Z,50.17
2023-02-07T00:10:51.638Z,50.17
2023-02-07T00:11:01.635Z,50.17
2023-02-07T00:11:11.647Z,50.17
2023-02-07T00:11:21.627Z,50.17
2023-02-07T00:11:31.639Z,50.17
2023-02-07T00:11:41.618Z,50.17
2023-02-07T00:11:51.631Z,50.17
2023-02-07T00:12:01.618Z,50.17
2023-02-07T00:12:11.640Z,50.17
2023-02-07T00:12:21.613Z,50.17
2023-02-07T00:12:31.630Z,50.17
2023-02-07T00:12:41.611Z,50.17
2023-02-07T00:12:51.641Z,50.17
2023-02-07T00:13:01.614Z,50.17
2023-02-07T00:13:11.640Z,50.17
2023-02-07T00:13:21.605Z,50.17
2023-02-07T00:13:31.620Z,50.17
2023-02-07T00:13:41.602Z,50.17
2023-02-07T00:13:51.615Z,50.17
2023-02-07T00:14:01.601Z,50.17
2023-02-07T00:14:11.662Z,50.20
2023-02-07T00:14:21.599Z,50.17
2023-02-07T00:14:31.628Z,50.17
2023-02-07T00:14:41.605Z,50.17
2023-02-07T00:14:51.612Z,50.17
2023-02-07T00:15:01.613Z,50.17
2023-02-07T00:15:11.592Z,50.17
2023-02-07T00:15:21.610Z,50.17
2023-02-07T00:15:31.590Z,50.17
2023-02-07T00:15:41.601Z,50.17
2023-02-07T00:15:51.587Z,50.17
2023-02-07T00:16:01.619Z,50.17
2023-02-07T00:16:11.647Z,50.17
2023-02-07T00:16:21.678Z,50.17
2023-02-07T00:16:31.630Z,50.17
2023-02-07T00:16:41.762Z,50.17
2023-02-07T00:16:51.661Z,50.20
2023-02-07T00:17:01.599Z,50.17
2023-02-07T00:17:21.596Z,50.17
2023-02-07T00:17:31.579Z,50.17
2023-02-07T00:17:41.596Z,50.17
2023-02-07T00:17:51.575Z,50.17
2023-02-07T00:18:01.603Z,50.17
2023-02-07T00:18:11.600Z,50.17
2023-02-07T00:18:21.588Z,50.20
2023-02-07T00:18:31.573Z,50.17
2023-02-07T00:18:41.612Z,50.17
2023-02-07T00:18:51.565Z,50.07
2023-02-07T00:19:01.598Z,50.17
2023-02-07T00:19:11.575Z,50.17
2023-02-07T00:19:21.580Z,50.07
2023-02-07T00:19:31.563Z,50.17
2023-02-07T00:19:41.597Z,50.10
2023-02-07T00:19:51.567Z,50.17
2023-02-07T00:20:01.575Z,50.07
2023-02-07T00:20:11.560Z,50.17
2023-02-07T00:20:21.592Z,50.17
2023-02-07T00:20:31.554Z,50.17
2023-02-07T00:20:41.593Z,50.07
2023-02-07T00:20:51.553Z,50.17
2023-02-07T00:21:01.600Z,50.07
2023-02-07T00:21:11.570Z,50.07
2023-02-07T00:21:21.581Z,50.07
2023-02-07T00:21:31.557Z,50.07
2023-02-07T00:21:41.598Z,50.07
2023-02-07T00:21:51.550Z,50.07
2023-02-07T00:22:01.571Z,50.07
2023-02-07T00:22:11.543Z,50.10
2023-02-07T00:22:21.574Z,50.07
2023-02-07T00:22:31.543Z,50.07
2023-02-07T00:22:41.559Z,50.07
2023-02-07T00:22:51.536Z,50.17
2023-02-07T00:23:01.575Z,50.17
2023-02-07T00:23:11.540Z,50.07
2023-02-07T00:23:21.555Z,50.07
2023-02-07T00:23:31.539Z,50.10
2023-02-07T00:23:41.557Z,50.10
2023-02-07T00:23:51.559Z,50.07
2023-02-07T00:24:01.556Z,50.07
2023-02-07T00:24:11.532Z,50.07
2023-02-07T00:24:21.562Z,50.07
2023-02-07T00:24:31.526Z,50.07
2023-02-07T00:24:50.533Z,50.07
2023-02-07T00:25:01.539Z,50.07
2023-02-07T00:25:11.527Z,50.07
2023-02-07T00:25:21.551Z,50.07
2023-02-07T00:25:31.525Z,50.07
2023-02-07T00:25:41.549Z,50.07
2023-02-07T00:25:51.520Z,50.07
2023-02-07T00:26:01.579Z,50.07
2023-02-07T00:26:11.512Z,50.07
2023-02-07T00:26:21.743Z,50.07
2023-02-07T00:26:31.534Z,50.07
2023-02-07T00:26:41.529Z,50.07
2023-02-07T00:26:51.521Z,50.17
2023-02-07T00:27:01.539Z,50.07
2023-02-07T00:27:11.509Z,50.07
2023-02-07T00:27:21.531Z,50.07
2023-02-07T00:27:31.509Z,50.07
2023-02-07T00:27:41.577Z,50.07
2023-02-07T00:27:51.601Z,50.07
2023-02-07T00:28:01.694Z,50.07
2023-02-07T00:28:11.703Z,50.07
2023-02-07T00:28:21.711Z,50.07
2023-02-07T00:28:31.626Z,50.07
2023-02-07T00:28:41.637Z,50.07
2023-02-07T00:28:51.573Z,50.10
2023-02-07T00:29:01.526Z,50.07
2023-02-07T00:29:11.494Z,50.07
2023-02-07T00:29:21.518Z,50.07
2023-02-07T00:29:31.490Z,50.07
2023-02-07T00:29:41.508Z,50.07
2023-02-07T00:29:51.504Z,50.07
2023-02-07T00:30:01.558Z,50.07
2023-02-07T00:30:11.484Z,50.07
2023-02-07T00:30:21.517Z,50.10
2023-02-07T00:30:31.596Z,50.07
2023-02-07T00:30:41.600Z,50.10
2023-02-07T00:30:51.635Z,50.07
2023-02-07T00:31:01.639Z,50.07
2023-02-07T00:31:11.625Z,50.07
2023-02-07T00:31:21.628Z,50.10
2023-02-07T00:31:31.641Z,50.07
2023-02-07T00:31:41.650Z,50.07
2023-02-07T00:31:51.474Z,50.07
2023-02-07T00:32:01.491Z,50.07
2023-02-07T00:32:11.472Z,50.10
2023-02-07T00:32:21.501Z,50.07
2023-02-07T00:32:31.471Z,50.07
2023-02-07T00:32:41.502Z,50.10
2023-02-07T00:32:51.485Z,50.07
2023-02-07T00:33:01.500Z,50.07
2023-02-07T00:33:11.465Z,50.07
2023-02-07T00:33:21.479Z,50.07
2023-02-07T00:33:31.462Z,50.07
2023-02-07T00:33:41.495Z,50.07
2023-02-07T00:33:51.481Z,50.07
2023-02-07T00:34:01.488Z,50.07
2023-02-07T00:34:11.460Z,50.07
2023-02-07T00:34:21.473Z,50.07
2023-02-07T00:34:31.473Z,50.07
2023-02-07T00:34:41.489Z,50.07
2023-02-07T00:34:51.473Z,50.10
2023-02-07T00:35:01.475Z,50.07
2023-02-07T00:35:11.453Z,50.10
2023-02-07T00:35:21.467Z,50.07
2023-02-07T00:35:31.450Z,50.10
2023-02-07T00:35:41.469Z,50.10
2023-02-07T00:35:51.452Z,50.10
2023-02-07T00:36:01.505Z,50.07
2023-02-07T00:36:11.446Z,50.07
2023-02-07T00:36:21.471Z,50.07
2023-02-07T00:36:31.455Z,50.07
2023-02-07T00:36:41.475Z,50.07
2023-02-07T00:36:51.447Z,50.07
2023-02-07T00:37:01.473Z,50.07
2023-02-07T00:37:11.439Z,50.07
2023-02-07T00:37:21.468Z,50.10
2023-02-07T00:37:31.437Z,50.07
2023-02-07T00:37:41.457Z,50.10
2023-02-07T00:37:51.432Z,50.07
2023-02-07T00:38:01.472Z,50.07
2023-02-07T00:38:11.431Z,50.07
2023-02-07T00:38:21.464Z,50.07
2023-02-07T00:38:31.430Z,50.10
2023-02-07T00:38:41.443Z,50.07
2023-02-07T00:38:51.453Z,50.10
2023-02-07T00:39:01.447Z,50.07
2023-02-07T00:39:11.423Z,50.10
2023-02-07T00:39:21.444Z,50.07
2023-02-07T00:39:31.431Z,50.07
2023-02-07T00:39:41.436Z,50.07
2023-02-07T00:39:51.417Z,50.07
2023-02-07T00:40:01.480Z,50.10
2023-02-07T00:40:11.419Z,50.07
2023-02-07T00:40:21.447Z,50.07
2023-02-07T00:40:31.414Z,50.10
2023-02-07T00:40:41.426Z,50.10
2023-02-07T00:40:51.412Z,50.07
2023-02-07T00:41:01.508Z,50.07
2023-02-07T00:41:11.408Z,50.07
2023-02-07T00:41:21.456Z,50.07
2023-02-07T00:41:31.445Z,50.10
2023-02-07T00:41:41.438Z,50.07
2023-02-07T00:41:51.406Z,50.10
2023-02-07T00:42:01.439Z,50.07
2023-02-07T00:42:11.403Z,50.07
2023-02-07T00:42:21.435Z,50.07
2023-02-07T00:42:31.406Z,50.10
2023-02-07T00:42:41.418Z,50.07
2023-02-07T00:42:51.398Z,50.10
2023-02-07T00:43:01.413Z,50.10
2023-02-07T00:43:18.783Z,50.10
2023-02-07T00:43:30.201Z,50.10
2023-02-07T00:43:34.998Z,50.07
2023-02-07T00:43:45.000Z,50.10
2023-02-07T00:43:54.964Z,50.10
2023-02-07T00:44:04.997Z,50.07
2023-02-07T00:44:14.969Z,50.07
2023-02-07T00:44:24.973Z,50.07
2023-02-07T00:44:34.958Z,50.10
2023-02-07T00:44:44.987Z,50.07
2023-02-07T00:44:54.955Z,50.10
2023-02-07T00:45:04.984Z,50.10
2023-02-07T00:45:14.950Z,50.07
2023-02-07T00:45:24.982Z,50.07
2023-02-07T00:45:35.189Z,50.07
2023-02-07T00:45:44.996Z,50.10
2023-02-07T00:45:54.988Z,50.10
2023-02-07T00:46:05.072Z,50.10
2023-02-07T00:46:15.043Z,50.10
2023-02-07T00:46:25.078Z,50.10
2023-02-07T00:46:34.944Z,50.10
2023-02-07T00:46:44.989Z,50.10
2023-02-07T00:46:54.940Z,50.07
2023-02-07T00:47:04.956Z,50.10
2023-02-07T00:47:14.944Z,50.07
2023-02-07T00:47:24.955Z,50.10
2023-02-07T00:47:34.941Z,50.07
2023-02-07T00:47:44.965Z,50.07
2023-02-07T00:47:54.931Z,50.07
2023-02-07T00:48:04.963Z,50.07
2023-02-07T00:48:14.932Z,50.10
2023-02-07T00:48:24.962Z,50.07
2023-02-07T00:48:34.941Z,50.10
2023-02-07T00:48:44.947Z,50.10
2023-02-07T00:48:54.949Z,50.10
2023-02-07T00:49:04.945Z,50.10
2023-02-07T00:49:14.934Z,50.10
2023-02-07T00:49:24.969Z,50.07
2023-02-07T00:49:34.924Z,49.97
2023-02-07T00:49:44.940Z,50.10
2023-02-07T00:50:04.936Z,50.07
2023-02-07T00:50:14.928Z,50.10
2023-02-07T00:50:24.928Z,50.07
2023-02-07T00:50:34.915Z,50.07
2023-02-07T00:50:44.930Z,50.10
2023-02-07T00:50:54.914Z,50.07
2023-02-07T00:51:04.925Z,50.10
2023-02-07T00:51:14.928Z,50.10
2023-02-07T00:51:24.924Z,50.07
2023-02-07T00:51:34.930Z,49.99
2023-02-07T00:51:44.948Z,50.10
2023-02-07T00:51:54.911Z,49.99
2023-02-07T00:52:04.950Z,49.99
2023-02-07T00:52:14.906Z,50.10
2023-02-07T00:52:24.936Z,49.97
2023-02-07T00:52:34.904Z,50.07
2023-02-07T00:52:44.932Z,50.07
2023-02-07T00:52:54.895Z,49.97
2023-02-07T00:53:04.932Z,49.97
2023-02-07T00:53:14.900Z,49.99
2023-02-07T00:53:24.936Z,49.99
2023-02-07T00:53:34.894Z,49.99
2023-02-07T00:53:44.912Z,49.99
2023-02-07T00:53:54.910Z,49.99
2023-02-07T00:54:04.930Z,49.99
2023-02-07T00:54:14.889Z,49.99
2023-02-07T00:54:24.902Z,49.99
2023-02-07T00:54:34.886Z,49.99
2023-02-07T00:54:44.902Z,49.99
2023-02-07T00:54:54.885Z,49.97
2023-02-07T00:55:04.904Z,49.99
2023-02-07T00:55:14.883Z,49.99
2023-02-07T00:55:24.910Z,49.99
2023-02-07T00:55:34.884Z,49.99
2023-02-07T00:55:44.910Z,49.97
2023-02-07T00:55:54.883Z,49.99
2023-02-07T00:56:04.910Z,50.10
2023-02-07T00:56:14.920Z,49.97
2023-02-07T00:56:24.906Z,49.99
2023-02-07T00:56:34.874Z,49.97
2023-02-07T00:56:44.905Z,49.99
2023-02-07T00:56:54.874Z,49.97
2023-02-07T00:57:04.884Z,49.99
2023-02-07T00:57:14.873Z,49.97
2023-02-07T00:57:34.867Z,49.99
2023-02-07T00:57:44.864Z,49.99
2023-02-07T00:57:54.878Z,49.99
2023-02-07T00:58:04.865Z,49.97
2023-02-07T00:58:14.883Z,49.99
2023-02-07T00:58:24.868Z,49.99
2023-02-07T00:58:34.882Z,49.99
2023-02-07T00:58:44.854Z,49.99
2023-02-07T00:58:54.885Z,49.97
2023-02-07T00:59:04.851Z,49.99
2023-02-07T00:59:14.885Z,49.99
2023-02-07T00:59:24.854Z,49.99
2023-02-07T00:59:34.866Z,49.99
2023-02-07T00:59:44.852Z,49.99
2023-02-07T00:59:54.866Z,49.99
2023-02-07T01:00:04.848Z,49.99
2023-02-07T01:00:14.862Z,49.99
2023-02-07T01:00:24.862Z,49.97
2023-02-07T01:00:34.857Z,49.97
2023-02-07T01:00:44.845Z,49.99
2023-02-07T01:00:54.901Z,49.99
2023-02-07T01:01:04.889Z,49.99
2023-02-07T01:01:14.934Z,49.99
2023-02-07T01:01:24.943Z,49.97
2023-02-07T01:01:34.879Z,49.99
2023-02-07T01:01:44.835Z,49.97
2023-02-07T01:01:54.884Z,49.99
2023-02-07T01:02:04.833Z,49.99
2023-02-07T01:02:14.866Z,49.99
2023-02-07T01:02:24.831Z,49.99
2023-02-07T01:02:34.865Z,49.99
2023-02-07T01:02:44.830Z,49.99
2023-02-07T01:02:54.843Z,49.99
2023-02-07T01:03:04.826Z,49.99
2023-02-07T01:03:14.843Z,49.99
2023-02-07T01:03:24.825Z,49.99
2023-02-07T01:03:34.852Z,49.99
2023-02-07T01:03:44.825Z,49.99
2023-02-07T01:03:54.850Z,49.99
2023-02-07T01:04:04.819Z,49.99
2023-02-07T01:04:14.856Z,49.99
2023-02-07T01:04:24.887Z,49.99
2023-02-07T01:04:34.880Z,49.99
2023-02-07T01:04:44.856Z,49.97
2023-02-07T01:05:04.887Z,49.99
2023-02-07T01:05:14.846Z,49.97
2023-02-07T01:05:24.811Z,49.99
2023-02-07T01:05:35.037Z,49.99
2023-02-07T01:05:44.817Z,49.99
2023-02-07T01:05:54.842Z,49.99
2023-02-07T01:06:04.811Z,49.99
2023-02-07T01:06:14.838Z,49.99
2023-02-07T01:06:24.803Z,49.99
2023-02-07T01:06:34.835Z,49.99
2023-02-07T01:06:44.802Z,49.99
2023-02-07T01:06:54.834Z,49.99
2023-02-07T01:07:04.803Z,49.99
2023-02-07T01:07:14.829Z,49.99
2023-02-07T01:07:24.796Z,49.97
2023-02-07T01:07:34.830Z,49.99
2023-02-07T01:07:44.795Z,49.99
2023-02-07T01:07:54.814Z,49.99
2023-02-07T01:08:04.801Z,49.99
2023-02-07T01:08:14.829Z,49.99
2023-02-07T01:08:24.800Z,49.99
2023-02-07T01:08:34.821Z,49.99
2023-02-07T01:08:44.798Z,49.99
2023-02-07T01:08:54.801Z,49.97
2023-02-07T01:09:04.793Z,49.99
2023-02-07T01:09:14.806Z,49.99
2023-02-07T01:09:24.784Z,49.99
2023-02-07T01:09:34.805Z,49.99
2023-02-07T01:09:44.791Z,49.99
2023-02-07T01:09:54.824Z,49.99
2023-02-07T01:10:04.784Z,49.99
2023-02-07T01:10:14.797Z,49.99
2023-02-07T01:10:24.781Z,49.99
2023-02-07T01:10:34.797Z,49.99
2023-02-07T01:10:44.779Z,49.97
2023-02-07T01:10:54.789Z,49.99
2023-02-07T01:11:04.778Z,49.99
2023-02-07T01:11:14.802Z,49.99
2023-02-07T01:11:24.769Z,49.99
2023-02-07T01:11:34.793Z,49.99
2023-02-07T01:11:44.780Z,49.99
2023-02-07T01:11:54.800Z,49.99
2023-02-07T01:12:04.766Z,49.99
2023-02-07T01:12:14.780Z,49.99
2023-02-07T01:12:24.763Z,49.99
2023-02-07T01:12:34.794Z,49.99
2023-02-07T01:12:44.770Z,49.99
2023-02-07T01:12:54.776Z,49.99
2023-02-07T01:13:04.757Z,49.99
2023-02-07T01:13:14.776Z,49.99
2023-02-07T01:13:24.769Z,49.99
2023-02-07T01:13:34.794Z,49.99
2023-02-07T01:13:44.763Z,49.99
2023-02-07T01:13:54.798Z,49.99
2023-02-07T01:14:04.785Z,49.97
2023-02-07T01:14:14.767Z,49.99
2023-02-07T01:14:24.750Z,49.99
2023-02-07T01:14:34.781Z,49.99
2023-02-07T01:14:44.748Z,49.99
2023-02-07T01:15:04.743Z,49.99
2023-02-07T01:15:14.760Z,49.99
2023-02-07T01:15:24.767Z,49.90
2023-02-07T01:15:34.797Z,49.99
2023-02-07T01:15:44.771Z,49.99
2023-02-07T01:15:54.797Z,49.99
2023-02-07T01:16:04.769Z,49.99
2023-02-07T01:16:14.799Z,49.90
2023-02-07T01:16:24.741Z,49.90
2023-02-07T01:16:34.774Z,49.99
2023-02-07T01:16:44.736Z,49.99
2023-02-07T01:16:54.754Z,49.99
2023-02-07T01:17:04.736Z,49.99
2023-02-07T01:17:14.759Z,49.99
2023-02-07T01:17:24.733Z,49.99
2023-02-07T01:17:34.759Z,49.99
2023-02-07T01:17:44.727Z,49.99
2023-02-07T01:17:54.744Z,49.90
2023-02-07T01:18:04.738Z,49.99
2023-02-07T01:18:14.720Z,49.87
2023-02-07T01:18:24.738Z,49.99
2023-02-07T01:18:34.732Z,49.90
2023-02-07T01:18:44.718Z,49.87
2023-02-07T01:18:54.749Z,49.90
2023-02-07T01:19:04.744Z,49.90
2023-02-07T01:19:14.736Z,49.90
2023-02-07T01:19:24.751Z,49.99
2023-02-07T01:19:34.727Z,49.90
2023-02-07T01:19:44.712Z,49.99
2023-02-07T01:19:54.759Z,49.90
2023-02-07T01:20:04.721Z,49.90
2023-02-07T01:20:14.726Z,49.99
2023-02-07T01:20:24.726Z,49.90
2023-02-07T01:20:34.730Z,49.90
2023-02-07T01:20:44.706Z,49.90
2023-02-07T01:20:54.735Z,49.90
2023-02-07T01:21:04.707Z,49.90
2023-02-07T01:21:14.716Z,49.90
2023-02-07T01:21:24.748Z,49.90
2023-02-07T01:21:34.738Z,49.99
2023-02-07T01:21:44.709Z,49.90
2023-02-07T01:21:54.737Z,49.90
2023-02-07T01:22:04.697Z,49.90
2023-02-07T01:22:14.714Z,49.99
2023-02-07T01:22:34.714Z,49.90
2023-02-07T01:22:44.692Z,49.90
2023-02-07T01:22:54.722Z,49.87
2023-02-07T01:23:04.711Z,49.90
2023-02-07T01:23:14.730Z,49.90
2023-02-07T01:23:24.696Z,49.90
2023-02-07T01:23:34.717Z,49.90
2023-02-07T01:23:44.686Z,49.90
2023-02-07T01:23:54.714Z,49.90
2023-02-07T01:24:04.690Z,49.90
2023-02-07T01:24:14.713Z,49.90
2023-02-07T01:24:24.680Z,49.99
2023-02-07T01:24:34.695Z,49.90
2023-02-07T01:24:44.680Z,49.90
2023-02-07T01:24:54.728Z,49.90
2023-02-07T01:25:04.690Z,49.90
2023-02-07T01:25:14.690Z,49.90
2023-02-07T01:25:24.709Z,49.90
2023-02-07T01:25:34.695Z,49.90
2023-02-07T01:25:44.672Z,49.90
2023-02-07T01:25:54.731Z,49.90
2023-02-07T01:26:04.670Z,49.90
2023-02-07T01:26:14.684Z,49.90
2023-02-07T01:26:24.718Z,49.90
2023-02-07T01:26:34.705Z,49.90
2023-02-07T01:26:44.661Z,49.90
2023-02-07T01:26:54.712Z,49.90
2023-02-07T01:27:04.660Z,49.90
2023-02-07T01:27:14.694Z,49.90
2023-02-07T01:27:24.722Z,49.90
2023-02-07T01:27:49.284Z,49.90
2023-02-07T01:27:54.005Z,49.90
2023-02-07T01:28:04.010Z,49.90
2023-02-07T01:28:14.022Z,49.90
2023-02-07T01:28:23.947Z,49.90
2023-02-07T01:28:33.976Z,49.90
2023-02-07T01:28:43.964Z,49.90
2023-02-07T01:28:53.963Z,49.90
2023-02-07T01:29:03.943Z,49.90
2023-02-07T01:29:13.961Z,49.90
2023-02-07T01:29:23.940Z,49.90
2023-02-07T01:29:33.977Z,49.90
2023-02-07T01:29:43.939Z,49.90
2023-02-07T01:29:53.955Z,49.90
2023-02-07T01:30:03.934Z,49.90
2023-02-07T01:30:13.951Z,49.90
2023-02-07T01:30:23.936Z,49.90
2023-02-07T01:30:34.024Z,49.90
2023-02-07T01:30:44.168Z,49.90
2023-02-07T01:30:54.079Z,49.90
2023-02-07T01:31:03.983Z,49.90
2023-02-07T01:31:14.088Z,49.90
2023-02-07T01:31:24.104Z,49.90
2023-02-07T01:31:34.073Z,49.90
2023-02-07T01:31:44.066Z,49.90
2023-02-07T01:31:54.032Z,49.90
2023-02-07T01:32:03.924Z,49.90
2023-02-07T01:32:13.954Z,49.90
2023-02-07T01:32:23.920Z,49.90
2023-02-07T01:32:33.951Z,49.90
2023-02-07T01:32:43.916Z,49.90
2023-02-07T01:32:53.945Z,49.90
2023-02-07T01:33:03.913Z,49.90
2023-02-07T01:33:13.931Z,49.90
2023-02-07T01:33:23.934Z,49.90
2023-02-07T01:33:33.927Z,49.90
2023-02-07T01:33:43.914Z,49.90
2023-02-07T01:33:53.936Z,49.90
2023-02-07T01:34:05.664Z,49.90
2023-02-07T01:34:13.939Z,49.90
2023-02-07T01:34:23.903Z,49.90
2023-02-07T01:34:33.936Z,49.90
2023-02-07T01:34:43.903Z,49.90
2023-02-07T01:34:53.926Z,49.90
2023-02-07T01:35:03.900Z,49.90
2023-02-07T01:35:13.913Z,49.90
2023-02-07T01:35:23.896Z,49.79
2023-02-07T01:35:33.911Z,49.90
2023-02-07T01:35:43.896Z,49.90
2023-02-07T01:35:53.920Z,49.79
2023-02-07T01:36:03.891Z,49.90
2023-02-07T01:36:13.926Z,49.79
2023-02-07T01:36:23.891Z,49.90
2023-02-07T01:36:33.925Z,49.90
2023-02-07T01:36:43.890Z,49.90
2023-02-07T01:36:53.915Z,49.90
2023-02-07T01:37:03.887Z,49.90
2023-02-07T01:37:13.920Z,49.90
2023-02-07T01:37:23.883Z,49.79
2023-02-07T01:37:33.921Z,49.90
2023-02-07T01:37:43.881Z,49.90
2023-02-07T01:37:53.893Z,49.79
2023-02-07T01:38:03.898Z,49.90
2023-02-07T01:38:13.902Z,49.90
2023-02-07T01:38:23.876Z,49.90
2023-02-07T01:38:33.904Z,49.90
2023-02-07T01:38:43.873Z,49.90
2023-02-07T01:38:53.908Z,49.90
2023-02-07T01:39:03.940Z,49.90
2023-02-07T01:39:13.901Z,49.90
2023-02-07T01:39:23.870Z,49.90
2023-02-07T01:39:33.897Z,49.90
2023-02-07T01:39:43.864Z,49.79
2023-02-07T01:39:53.884Z,49.90
2023-02-07T01:40:03.870Z,49.90
2023-02-07T01:40:13.896Z,49.90
2023-02-07T01:40:23.861Z,49.90
2023-02-07T01:40:33.864Z,49.90
2023-02-07T01:40:43.891Z,49.79
2023-02-07T01:40:53.873Z,49.90
2023-02-07T01:41:03.889Z,49.90
2023-02-07T01:41:13.857Z,49.79
2023-02-07T01:41:23.889Z,49.79
2023-02-07T01:41:33.851Z,49.79
2023-02-07T01:41:43.863Z,49.79
2023-02-07T01:41:53.849Z,49.79
2023-02-07T01:42:03.877Z,49.90
2023-02-07T01:42:13.845Z,49.90
2023-02-07T01:42:23.864Z,49.79
2023-02-07T01:42:33.845Z,49.79
2023-02-07T01:42:43.877Z,49.90
2023-02-07T01:42:53.848Z,49.79
2023-02-07T01:43:03.876Z,49.79
2023-02-07T01:43:13.848Z,49.79
2023-02-07T01:43:23.875Z,49.79
2023-02-07T01:43:33.834Z,49.79
2023-02-07T01:43:43.869Z,49.79
2023-02-07T01:43:53.833Z,49.79
2023-02-07T01:44:03.847Z,49.79
2023-02-07T01:44:13.830Z,49.79
2023-02-07T01:44:23.848Z,49.79
2023-02-07T01:44:33.837Z,49.79
2023-02-07T01:44:43.844Z,49.79
2023-02-07T01:45:03.849Z,49.79
2023-02-07T01:45:13.823Z,49.79
2023-02-07T01:45:23.845Z,49.79
2023-02-07T01:45:33.829Z,49.79
2023-02-07T01:45:43.838Z,49.79
2023-02-07T01:45:53.829Z,49.79
2023-02-07T01:46:03.918Z,49.79
2023-02-07T01:46:13.871Z,49.79
2023-02-07T01:46:23.857Z,49.79
2023-02-07T01:46:33.887Z,49.79
2023-02-07T01:46:43.829Z,49.79
2023-02-07T01:46:53.813Z,49.90
2023-02-07T01:47:03.839Z,49.79
2023-02-07T01:47:13.811Z,49.79
2023-02-07T01:47:33.821Z,49.79
2023-02-07T01:47:43.819Z,49.79
2023-02-07T01:47:53.809Z,49.79
2023-02-07T01:48:03.822Z,49.79
2023-02-07T01:48:13.820Z,49.79
2023-02-07T01:48:23.826Z,49.79
2023-02-07T01:48:33.797Z,49.79
2023-02-07T01:48:43.814Z,49.79
2023-02-07T01:48:53.803Z,49.79
2023-02-07T01:49:03.814Z,49.79
2023-02-07T01:49:13.796Z,49.79
2023-02-07T01:49:23.807Z,49.79
2023-02-07T01:49:33.794Z,49.79
2023-02-07T01:49:43.808Z,49.79
2023-02-07T01:49:53.791Z,49.79
2023-02-07T01:50:03.819Z,49.79
2023-02-07T01:50:13.783Z,49.79
2023-02-07T01:50:23.827Z,49.79
2023-02-07T01:50:33.792Z,49.79
2023-02-07T01:50:43.810Z,49.79
2023-02-07T01:50:53.778Z,49.79
2023-02-07T01:51:03.812Z,49.79
2023-02-07T01:51:13.780Z,49.79
2023-02-07T01:51:23.807Z,49.79
2023-02-07T01:51:33.799Z,49.79
2023-02-07T01:51:43.807Z,49.79
2023-02-07T01:51:56.212Z,49.79
2023-02-07T01:52:03.806Z,49.79
2023-02-07T01:52:13.777Z,49.79
2023-02-07T01:52:23.811Z,49.79
2023-02-07T01:52:33.781Z,49.79
2023-02-07T01:52:43.811Z,49.79
2023-02-07T01:52:53.768Z,49.79
2023-02-07T01:53:03.789Z,49.79
2023-02-07T01:53:13.770Z,49.79
2023-02-07T01:53:23.797Z,49.79
2023-02-07T01:53:33.763Z,49.79
2023-02-07T01:53:43.780Z,49.79
2023-02-07T01:53:53.766Z,49.79
2023-02-07T01:54:03.793Z,49.79
2023-02-07T01:54:13.762Z,49.79
2023-02-07T01:54:23.812Z,49.79
2023-02-07T01:54:33.754Z,49.79
2023-02-07T01:54:43.790Z,49.79
2023-02-07T01:54:53.752Z,49.79
2023-02-07T01:55:03.768Z,49.79
2023-02-07T01:55:13.756Z,49.79
2023-02-07T01:55:23.768Z,49.79
2023-02-07T01:55:33.752Z,49.79
2023-02-07T01:55:43.765Z,49.79
2023-02-07T01:55:53.748Z,49.79
2023-02-07T01:56:03.787Z,49.79
2023-02-07T01:56:29.501Z,49.79
2023-02-07T01:56:35.651Z,49.79
2023-02-07T01:56:40.322Z,49.79
2023-02-07T01:56:50.352Z,49.79
2023-02-07T01:57:00.320Z,49.79
2023-02-07T01:57:10.351Z,49.79
2023-02-07T01:57:20.317Z,49.79
2023-02-07T01:57:30.333Z,49.79
2023-02-07T01:57:40.322Z,49.79
2023-02-07T01:57:50.379Z,49.79
2023-02-07T01:58:00.311Z,49.79
2023-02-07T01:58:10.327Z,49.79
2023-02-07T01:58:20.308Z,49.79
2023-02-07T01:58:30.340Z,49.79
2023-02-07T01:58:40.306Z,49.79
2023-02-07T01:58:50.340Z,49.79
2023-02-07T01:59:00.305Z,49.79
2023-02-07T01:59:10.339Z,49.79
2023-02-07T01:59:20.305Z,49.79
2023-02-07T01:59:30.335Z,49.79
2023-02-07T01:59:40.302Z,49.79
2023-02-07T01:59:50.319Z,49.79
2023-02-07T02:00:00.297Z,49.79
2023-02-07T02:00:10.313Z,49.79
2023-02-07T02:00:20.299Z,49.79
2023-02-07T02:00:30.326Z,49.79
2023-02-07T02:00:40.294Z,49.79
2023-02-07T02:00:50.340Z,49.79
2023-02-07T02:01:00.292Z,49.79
2023-02-07T02:01:10.352Z,49.79
2023-02-07T02:01:20.296Z,49.79
2023-02-07T02:01:30.337Z,49.79
2023-02-07T02:01:40.329Z,49.79
2023-02-07T02:01:50.337Z,49.79
2023-02-07T02:02:00.282Z,49.79
2023-02-07T02:02:10.300Z,49.79
2023-02-07T02:02:20.300Z,49.79
2023-02-07T02:02:30.324Z,49.79
2023-02-07T02:02:40.306Z,49.79
2023-02-07T02:02:50.394Z,49.79
2023-02-07T02:03:00.301Z,49.79
2023-02-07T02:03:10.307Z,49.79
2023-02-07T02:03:20.280Z,49.79
2023-02-07T02:03:30.294Z,49.79
2023-02-07T02:03:40.273Z,49.79
2023-02-07T02:03:50.307Z,49.79
2023-02-07T02:04:00.269Z,49.79
2023-02-07T02:04:10.303Z,49.79
2023-02-07T02:04:20.268Z,49.79
2023-02-07T02:04:30.283Z,49.79
2023-02-07T02:04:40.266Z,49.79
2023-02-07T02:04:50.280Z,49.79
2023-02-07T02:05:00.267Z,49.79
2023-02-07T02:05:10.299Z,49.79
2023-02-07T02:05:20.269Z,49.79
2023-02-07T02:05:30.298Z,49.79
2023-02-07T02:05:40.281Z,49.79
2023-02-07T02:05:50.274Z,49.79
2023-02-07T02:06:00.255Z,49.79
2023-02-07T02:06:10.293Z,49.79
2023-02-07T02:06:20.255Z,49.79
2023-02-07T02:06:30.266Z,49.79
2023-02-07T02:06:40.254Z,49.79
2023-02-07T02:06:50.283Z,49.69
2023-02-07T02:07:00.262Z,49.79
2023-02-07T02:07:10.275Z,49.79
2023-02-07T02:07:20.247Z,49.79
2023-02-07T02:07:30.268Z,49.69
2023-02-07T02:07:40.247Z,49.79
2023-02-07T02:07:50.273Z,49.69
2023-02-07T02:08:00.244Z,49.69
2023-02-07T02:08:10.270Z,49.79
2023-02-07T02:08:20.251Z,49.69
2023-02-07T02:08:30.269Z,49.69
2023-02-07T02:08:40.236Z,49.69
2023-02-07T02:08:50.267Z,49.69
2023-02-07T02:09:00.245Z,49.69
2023-02-07T02:09:10.270Z,49.69
2023-02-07T02:09:20.230Z,49.69
2023-02-07T02:09:30.256Z,49.69
2023-02-07T02:09:40.229Z,49.69
2023-02-07T02:09:50.246Z,49.69
2023-02-07T02:10:00.230Z,49.69
2023-02-07T02:10:10.248Z,49.69
2023-02-07T02:10:20.234Z,49.69
2023-02-07T02:10:30.260Z,49.69
2023-02-07T02:10:40.220Z,49.69
2023-02-07T02:10:50.241Z,49.69